KLNK

Lincoln Airport

Lincoln, Nebraska, USA
KLNK 210907Z 2109/2206 30012G22KT P6SM -RA FEW045 SCT080 OVC110 TEMPO 2109/2110 4SM -SHRA OVC015 FM211100 30017KT P6SM VCSH OVC015 FM211400 33018G26KT P6SM VCSH OVC015 FM211500 34018G26KT P6SM OVC010 FM211800 34018G26KT P6SM OVC010 PROB30 2118/2122 4SM -SHRA OVC003 FM212200 34015G23KT P6SM BKN015 PROB30 2122/2124 4SM -SHRA OVC007
Issued Valid From Valid To
Jun-21 @ 09:07 UTC
(an hour ago)
Jun-21 @ 09:00 UTC
(an hour ago)
Jun-22 @ 06:00 UTC
(in 20 hours)
Jun-21 @ 09:00 to Jun-21 @ 11:00
KLNK 210907Z 2109/2206 30012G22KT P6SM -RA FEW045 SCT080 OVC110
Wind Visibility Clouds Conditions
300° at 12 knots
 Gusting to 22 knots
Greater than 6 miles
  • Few at 4,500' AGL
  • Scattered at 8,000' AGL
  • Overcast at 11,000' AGL
  • Light Rain
Expired Click to View Jun-21 @ 09:00 to Jun-21 @ 10:00
TEMPO 2109/2110 4SM -SHRA OVC015
Visibility Clouds Conditions
4 miles
  • Overcast at 1,500' AGL
  • Light Rain
From Jun-21 @ 11:00 to Jun-21 @ 14:00
FM211100 30017KT P6SM VCSH OVC015
Wind Visibility Clouds
300° at 17 knots Greater than 6 miles
  • Overcast at 1,500' AGL
From Jun-21 @ 14:00 to Jun-21 @ 15:00
FM211400 33018G26KT P6SM VCSH OVC015
Wind Visibility Clouds
330° at 18 knots
 Gusting to 26 knots
Greater than 6 miles
  • Overcast at 1,500' AGL
From Jun-21 @ 15:00 to Jun-21 @ 18:00
FM211500 34018G26KT P6SM OVC010
Wind Visibility Clouds
340° at 18 knots
 Gusting to 26 knots
Greater than 6 miles
  • Overcast at 1,000' AGL
Probable  (Probability 30%) Jun-21 @ 18:00 to Jun-21 @ 22:00
PROB30 2118/2122 4SM -SHRA OVC003
Visibility Clouds Conditions
4 miles
  • Overcast at 300' AGL
  • Light Rain
From Jun-21 @ 18:00 to Jun-21 @ 22:00
FM211800 34018G26KT P6SM OVC010
Wind Visibility Clouds
340° at 18 knots
 Gusting to 26 knots
Greater than 6 miles
  • Overcast at 1,000' AGL
Probable  (Probability 30%) Jun-21 @ 22:00 to Jun-22 @ 00:00
PROB30 2122/2124 4SM -SHRA OVC007
Visibility Clouds Conditions
4 miles
  • Overcast at 700' AGL
  • Light Rain
From Jun-21 @ 22:00 to Jun-22 @ 06:00
FM212200 34015G23KT P6SM BKN015
Wind Visibility Clouds
340° at 15 knots
 Gusting to 23 knots
Greater than 6 miles
  • Broken at 1,500' AGL
KLNK 210907Z 2109/2206 30012G22KT P6SM -RA FEW045 SCT080 OVC110 TEMPO 2109/2110 4SM -SHRA OVC015 FM211100 30017KT P6SM VCSH OVC015 FM211400 33018G26KT P6SM VCSH OVC015 FM211500 34018G26KT P6SM OVC010 FM211800 34018G26KT P6SM OVC010 PROB30 2118/2122 4SM -SHRA OVC003 FM212200 34015G23KT P6SM BKN015 PROB30 2122/2124 4SM -SHRA OVC007
Issued Jun-21 @ 09:07 UTC
(an hour ago)
Valid From Jun-21 @ 09:00 UTC
(an hour ago)
Valid To Jun-22 @ 06:00 UTC
(in 20 hours)
Jun-21 @ 09:00 - Jun-21 @ 11:00
Wind Visibility
300° at 12 knots
 Gusting to 22 knots
Greater than 6 miles
Clouds
  • Few at 4,500' AGL
  • Scattered at 8,000' AGL
  • Overcast at 11,000' AGL
Conditions
  • Light Rain
Jun-21 @ 09:00 - Jun-21 @ 10:00
Clouds
  • Overcast at 1,500' AGL
Conditions
  • Light Rain
From Jun-21 @ 11:00 - Jun-21 @ 14:00
Wind Visibility
300° at 17 knots Greater than 6 miles
Clouds
  • Overcast at 1,500' AGL
From Jun-21 @ 14:00 - Jun-21 @ 15:00
Wind Visibility
330° at 18 knots
 Gusting to 26 knots
Greater than 6 miles
Clouds
  • Overcast at 1,500' AGL
From Jun-21 @ 15:00 - Jun-21 @ 18:00
Wind Visibility
340° at 18 knots
 Gusting to 26 knots
Greater than 6 miles
Clouds
  • Overcast at 1,000' AGL
Probability 30% Probable Jun-21 @ 18:00 - Jun-21 @ 22:00
Clouds
  • Overcast at 300' AGL
Conditions
  • Light Rain
From Jun-21 @ 18:00 - Jun-21 @ 22:00
Wind Visibility
340° at 18 knots
 Gusting to 26 knots
Greater than 6 miles
Clouds
  • Overcast at 1,000' AGL
Probability 30% Probable Jun-21 @ 22:00 - Jun-22 @ 00:00
Clouds
  • Overcast at 700' AGL
Conditions
  • Light Rain
From Jun-21 @ 22:00 - Jun-22 @ 06:00
Wind Visibility
340° at 15 knots
 Gusting to 23 knots
Greater than 6 miles
Clouds
  • Broken at 1,500' AGL